This is the latest recevied weather packets stored in our database for station/object AA7VG. If no packets are shown the sender has not sent any weather packets the latest 10 day(s).
| Time | Temp. | Humidity | Pressure | Rain* | Wind** | Luminosity | Snow |
|---|---|---|---|---|---|---|---|
| 1778008842 | 11.11° C | 31% | 1015.3 hPa | 0 mm | - | - | - |
| 1778008540 | 11.11° C | 31% | 1015.3 hPa | 0 mm | - | - | - |
| 1778008238 | 10° C | 33% | 1015.4 hPa | 0 mm | - | - | - |
| 1778007938 | 9.44° C | 35% | 1015.4 hPa | 0 mm | - | - | - |
| 1778007634 | 10° C | 33% | 1015.6 hPa | 0 mm | - | - | - |
| 1778007331 | 9.44° C | 33% | 1015.5 hPa | 0 mm | - | - | - |
| 1778007028 | 9.44° C | 32% | 1015.5 hPa | 0 mm | - | - | - |
| 1778006725 | 10° C | 31% | 1015.6 hPa | 0 mm | - | - | - |
| 1778006421 | 9.44° C | 33% | 1015.8 hPa | 0 mm | - | - | - |
| 1778006118 | 9.44° C | 33% | 1015.6 hPa | 0 mm | - | - | - |
| 1778005816 | 9.44° C | 33% | 1015.8 hPa | 0 mm | - | - | - |
| 1778005512 | 9.44° C | 33% | 1015.5 hPa | 0 mm | - | - | - |
| 1778005209 | 9.44° C | 32% | 1015.4 hPa | 0 mm | - | - | - |
| 1778004905 | 9.44° C | 37% | 1015.5 hPa | 0 mm | - | - | - |
| 1778004603 | 8.89° C | 37% | 1015.8 hPa | 0 mm | - | - | - |
| 1778004298 | 7.78° C | 39% | 1015.8 hPa | 0 mm | - | - | - |
| 1778003996 | 7.78° C | 40% | 1015.8 hPa | 0 mm | - | - | - |
| 1778003691 | 8.89° C | 37% | 1015.6 hPa | 0 mm | - | - | - |
| 1778003388 | 8.89° C | 37% | 1015.4 hPa | 0 mm | - | - | - |
| 1778003085 | 10° C | 35% | 1015.5 hPa | 0 mm | - | - | - |
| 1778002781 | 9.44° C | 36% | 1015.8 hPa | 0 mm | - | - | - |
| 1778002478 | 8.89° C | 38% | 1015.4 hPa | 0 mm | - | - | - |
| 1778002175 | 10° C | 36% | 1015.5 hPa | 0 mm | - | - | - |
| 1778001874 | 10.56° C | 33% | 1015.3 hPa | 0 mm | - | - | - |
| 1778001572 | 10.56° C | 33% | 1015.3 hPa | 0 mm | - | - | - |
* Rain latest hour (hover to see other rain measurements)
** Current wind speed in m/s (hover to see current wind gust speed)